Time;durP1;ratioP1;P1;durP2;ratioP2;P2;SDS_P1;SDS_P2;PMS_P1;PMS_P2;Temp;Humidity;BMP_temperature;BMP_pressure;BME280_temperature;BME280_humidity;BME280_pressure;Samples;Min_cycle;Max_cycle;Signal;HPM_P1;HPM_P2
2021/06/14 00:01:04;;;;;;;;;;;11.60;99.90;;;;;;5091952;28;20384;-73
2021/06/14 00:03:29;;;;;;;;;;;11.50;99.90;;;;;;5091526;28;19930;-73
2021/06/14 00:05:55;;;;;;;;;;;11.50;99.90;;;;;;5090943;28;19912;-72
2021/06/14 00:08:22;;;;;;;;;;;11.50;99.90;;;;;;5092089;28;19908;-72
2021/06/14 00:10:49;;;;;;;;;;;11.40;99.90;;;;;;5091874;28;19908;-72
2021/06/14 00:13:14;;;;;;;;;;;11.40;99.90;;;;;;5091703;28;20361;-73
2021/06/14 00:15:41;;;;;;;;;;;11.50;99.90;;;;;;5090952;28;19914;-73
2021/06/14 00:18:08;;;;;;;;;;;11.50;99.90;;;;;;5091405;28;19948;-72
2021/06/14 00:20:33;;;;;;;;;;;11.40;99.90;;;;;;5091764;28;19912;-72
2021/06/14 00:22:59;;;;;;;;;;;11.30;99.90;;;;;;5085564;28;20332;-72
2021/06/14 00:25:26;;;;;;;;;;;11.30;99.90;;;;;;5089553;28;20407;-73
2021/06/14 00:27:52;;;;;;;;;;;11.30;99.90;;;;;;5090701;28;20522;-73
2021/06/14 00:30:21;;;;;;;;;;;11.30;99.90;;;;;;5091686;28;19908;-72
2021/06/14 00:32:47;;;;;;;;;;;11.20;99.90;;;;;;5091388;28;19912;-72
2021/06/14 00:35:12;;;;;;;;;;;11.20;99.90;;;;;;5091858;28;19915;-72
2021/06/14 00:37:38;;;;;;;;;;;11.20;99.90;;;;;;5090808;28;19915;-75
2021/06/14 00:40:04;;;;;;;;;;;11.30;99.90;;;;;;5091210;28;19919;-73
2021/06/14 00:42:29;;;;;;;;;;;11.30;99.90;;;;;;5091501;28;19912;-72
2021/06/14 00:44:55;;;;;;;;;;;11.20;99.90;;;;;;5091584;28;19935;-72
2021/06/14 00:47:20;;;;;;;;;;;11.10;99.90;;;;;;5090536;28;19940;-73
2021/06/14 00:49:46;;;;;;;;;;;11.10;99.90;;;;;;5091264;28;19998;-72
2021/06/14 00:52:11;;;;;;;;;;;11.00;99.90;;;;;;5091453;28;20322;-72
2021/06/14 00:54:37;;;;;;;;;;;11.00;99.90;;;;;;5082814;28;19915;-72
2021/06/14 00:57:02;;;;;;;;;;;11.00;99.90;;;;;;5091285;28;19912;-73
2021/06/14 00:59:29;;;;;;;;;;;11.00;99.90;;;;;;5091351;28;19993;-72
2021/06/14 01:01:54;;;;;;;;;;;11.00;99.90;;;;;;5091268;28;19908;-72
2021/06/14 01:04:20;;;;;;;;;;;11.00;99.90;;;;;;5091043;28;20296;-72
2021/06/14 01:06:48;;;;;;;;;;;11.00;99.90;;;;;;5091427;28;19951;-72
2021/06/14 01:09:14;;;;;;;;;;;10.90;99.90;;;;;;5094850;28;20384;-72
2021/06/14 01:11:44;;;;;;;;;;;10.90;99.90;;;;;;5094856;28;19908;-73
2021/06/14 01:14:23;;;;;;;;;;;10.90;99.90;;;;;;5093556;28;19908;-72
2021/06/14 01:17:01;;;;;;;;;;;10.90;99.90;;;;;;5094095;28;19908;-72
2021/06/14 01:19:48;;;;;;;;;;;10.90;99.90;;;;;;5094494;28;19908;-74
2021/06/14 01:22:22;;;;;;;;;;;10.90;99.90;;;;;;5094373;28;20014;-73
2021/06/14 01:25:00;;;;;;;;;;;10.90;99.90;;;;;;5100433;28;19946;-73
2021/06/14 01:27:43;;;;;;;;;;;10.90;99.90;;;;;;5092499;28;20409;-73
2021/06/14 01:30:14;;;;;;;;;;;10.90;99.90;;;;;;5094346;28;20387;-72
2021/06/14 01:32:40;;;;;;;;;;;10.80;99.90;;;;;;5094284;28;19915;-72
2021/06/14 01:35:08;;;;;;;;;;;10.80;99.90;;;;;;5094310;28;20289;-72
2021/06/14 01:37:38;;;;;;;;;;;10.80;99.90;;;;;;5093675;28;19918;-73
2021/06/14 01:40:05;;;;;;;;;;;10.80;99.90;;;;;;5094293;28;20006;-72
2021/06/14 01:42:31;;;;;;;;;;;10.70;99.90;;;;;;5094270;28;19969;-72
2021/06/14 01:44:57;;;;;;;;;;;10.60;99.90;;;;;;5094668;28;19916;-72
2021/06/14 01:47:22;;;;;;;;;;;10.60;99.90;;;;;;5093494;28;20262;-73
2021/06/14 01:49:48;;;;;;;;;;;10.60;99.90;;;;;;5094082;28;19942;-73
2021/06/14 01:52:14;;;;;;;;;;;10.50;99.90;;;;;;5094144;28;19954;-72
2021/06/14 01:54:40;;;;;;;;;;;10.40;99.90;;;;;;5089044;28;19976;-72
2021/06/14 01:57:06;;;;;;;;;;;10.30;99.90;;;;;;5113547;28;19911;-72
2021/06/14 01:59:34;;;;;;;;;;;10.30;99.90;;;;;;5114263;28;19919;-72
2021/06/14 02:02:02;;;;;;;;;;;10.30;99.90;;;;;;5114102;28;19958;-72
2021/06/14 02:04:28;;;;;;;;;;;10.30;99.90;;;;;;5113771;28;20328;-72
2021/06/14 02:06:54;;;;;;;;;;;10.30;99.90;;;;;;5113152;28;19915;-72
2021/06/14 02:09:23;;;;;;;;;;;10.30;99.90;;;;;;5114028;28;20006;-72
2021/06/14 02:11:50;;;;;;;;;;;10.30;99.90;;;;;;5113807;28;20284;-72
2021/06/14 02:14:20;;;;;;;;;;;10.20;99.90;;;;;;5113803;28;20400;-73
2021/06/14 02:16:47;;;;;;;;;;;10.10;99.90;;;;;;5113040;28;19967;-72
2021/06/14 02:19:13;;;;;;;;;;;10.10;99.90;;;;;;5111609;28;19915;-72
2021/06/14 02:21:42;;;;;;;;;;;10.10;99.90;;;;;;5113801;28;19908;-72
2021/06/14 02:24:08;;;;;;;;;;;10.20;99.90;;;;;;5096854;28;20472;-72
2021/06/14 02:26:34;;;;;;;;;;;10.20;99.90;;;;;;5092963;28;20007;-72
2021/06/14 02:28:59;;;;;;;;;;;10.10;99.90;;;;;;5093163;28;19969;-73
2021/06/14 02:31:25;;;;;;;;;;;10.20;99.90;;;;;;5093186;28;19962;-72
2021/06/14 02:33:51;;;;;;;;;;;10.20;99.90;;;;;;5092869;28;20306;-74
2021/06/14 02:36:16;;;;;;;;;;;10.20;99.90;;;;;;5092262;28;19912;-72
2021/06/14 02:38:43;;;;;;;;;;;10.10;99.90;;;;;;5093394;28;19915;-72
2021/06/14 02:41:09;;;;;;;;;;;10.00;99.90;;;;;;5091115;28;20409;-74
2021/06/14 02:43:35;;;;;;;;;;;10.00;99.90;;;;;;5092942;28;19920;-72
2021/06/14 02:46:00;;;;;;;;;;;10.00;99.90;;;;;;5092076;28;19912;-72
2021/06/14 02:48:27;;;;;;;;;;;10.00;99.90;;;;;;5092451;28;19934;-72
2021/06/14 02:50:53;;;;;;;;;;;9.90;99.90;;;;;;5092757;28;19908;-72
2021/06/14 02:53:21;;;;;;;;;;;9.90;99.90;;;;;;5084239;28;19966;-72
2021/06/14 02:55:52;;;;;;;;;;;9.80;99.90;;;;;;5096235;28;19912;-72
2021/06/14 02:58:24;;;;;;;;;;;9.80;99.90;;;;;;5112892;28;19952;-72
2021/06/14 03:00:49;;;;;;;;;;;9.70;99.90;;;;;;5112991;28;20376;-73
2021/06/14 03:03:15;;;;;;;;;;;9.70;99.90;;;;;;5112243;28;19926;-72
2021/06/14 03:05:42;;;;;;;;;;;9.60;99.90;;;;;;5111807;28;19960;-72
2021/06/14 03:08:08;;;;;;;;;;;9.60;99.90;;;;;;5112393;28;20010;-72
2021/06/14 03:10:34;;;;;;;;;;;9.60;99.90;;;;;;5112576;28;19998;-73
2021/06/14 03:13:01;;;;;;;;;;;9.60;99.90;;;;;;5112501;28;19908;-72
2021/06/14 03:15:27;;;;;;;;;;;9.70;99.90;;;;;;5112423;28;19911;-72
2021/06/14 03:17:53;;;;;;;;;;;9.60;99.90;;;;;;5111349;28;19912;-72
2021/06/14 03:20:19;;;;;;;;;;;9.60;99.90;;;;;;5112616;28;20391;-73
2021/06/14 03:22:45;;;;;;;;;;;9.60;99.90;;;;;;5108180;28;19923;-72
2021/06/14 03:25:11;;;;;;;;;;;9.50;99.90;;;;;;5091899;28;19908;-72
2021/06/14 03:27:37;;;;;;;;;;;9.50;99.90;;;;;;5111222;28;19919;-72
2021/06/14 03:30:03;;;;;;;;;;;9.60;99.90;;;;;;5111677;28;19914;-72
2021/06/14 03:32:29;;;;;;;;;;;9.60;99.90;;;;;;5112064;28;19912;-73
2021/06/14 03:34:54;;;;;;;;;;;9.60;99.90;;;;;;5112366;28;19908;-73
2021/06/14 03:37:20;;;;;;;;;;;9.60;99.90;;;;;;5111401;28;20361;-75
2021/06/14 03:39:46;;;;;;;;;;;9.60;99.90;;;;;;5112257;28;20327;-72
2021/06/14 03:42:16;;;;;;;;;;;9.60;99.90;;;;;;5112271;28;20372;-72
2021/06/14 03:44:41;;;;;;;;;;;9.60;99.90;;;;;;5112296;28;19953;-72
2021/06/14 03:47:06;;;;;;;;;;;9.60;99.90;;;;;;5111401;28;19908;-72
2021/06/14 03:49:32;;;;;;;;;;;9.60;99.90;;;;;;5111889;28;20280;-72
2021/06/14 03:51:58;;;;;;;;;;;9.70;99.90;;;;;;5112167;28;20059;-72
2021/06/14 03:54:23;;;;;;;;;;;9.70;99.90;;;;;;5086838;28;20010;-72
2021/06/14 03:56:48;;;;;;;;;;;9.60;99.90;;;;;;5111268;28;20308;-72
2021/06/14 03:59:14;;;;;;;;;;;9.60;99.90;;;;;;5112021;28;20090;-72
2021/06/14 04:01:40;;;;;;;;;;;9.70;99.90;;;;;;5111994;28;20397;-72
2021/06/14 04:04:36;;;;;;;;;;;9.70;99.90;;;;;;5111713;28;19915;-72
2021/06/14 04:07:01;;;;;;;;;;;9.80;99.90;;;;;;5111279;28;19937;-72
2021/06/14 04:09:27;;;;;;;;;;;9.90;99.90;;;;;;5110822;28;19957;-73
2021/06/14 04:11:53;;;;;;;;;;;9.90;99.90;;;;;;5111996;28;19907;-72
2021/06/14 04:14:18;;;;;;;;;;;9.90;99.90;;;;;;5111929;28;20001;-72
2021/06/14 04:16:44;;;;;;;;;;;9.90;99.90;;;;;;5111135;28;19994;-72
2021/06/14 04:19:09;;;;;;;;;;;9.90;99.90;;;;;;5111474;28;19908;-72
2021/06/14 04:21:35;;;;;;;;;;;10.00;99.90;;;;;;5111846;28;20384;-73
2021/06/14 04:24:00;;;;;;;;;;;10.10;99.90;;;;;;5095130;28;20395;-72
2021/06/14 04:26:26;;;;;;;;;;;10.30;99.90;;;;;;5110751;28;20280;-72
2021/06/14 04:28:51;;;;;;;;;;;10.30;99.90;;;;;;5111810;28;19907;-74
2021/06/14 04:31:17;;;;;;;;;;;10.40;99.90;;;;;;5111647;28;19908;-72
2021/06/14 04:33:42;;;;;;;;;;;10.50;99.90;;;;;;5111405;28;19995;-72
2021/06/14 04:36:08;;;;;;;;;;;10.60;99.90;;;;;;5110960;28;19915;-75
2021/06/14 04:38:33;;;;;;;;;;;10.70;99.90;;;;;;5111729;28;20026;-72
2021/06/14 04:40:59;;;;;;;;;;;10.80;99.90;;;;;;5112938;28;19916;-72
2021/06/14 04:43:24;;;;;;;;;;;11.00;99.90;;;;;;5115598;28;20307;-73
2021/06/14 04:45:50;;;;;;;;;;;11.00;99.90;;;;;;5114652;28;19912;-73
2021/06/14 04:48:15;;;;;;;;;;;11.10;99.90;;;;;;5115182;28;20456;-72
2021/06/14 04:50:41;;;;;;;;;;;11.10;99.90;;;;;;5115760;28;19908;-72
2021/06/14 04:53:06;;;;;;;;;;;11.30;99.90;;;;;;5101110;28;20013;-72
2021/06/14 04:55:32;;;;;;;;;;;11.30;99.90;;;;;;5110309;28;19908;-75
2021/06/14 04:57:57;;;;;;;;;;;11.40;99.90;;;;;;5094379;28;19908;-72
2021/06/14 05:00:23;;;;;;;;;;;11.50;99.90;;;;;;5094894;28;19908;-72
2021/06/14 05:02:49;;;;;;;;;;;11.60;99.90;;;;;;5094107;28;19912;-72
2021/06/14 05:05:15;;;;;;;;;;;11.70;99.90;;;;;;5094771;28;19912;-73
2021/06/14 05:07:41;;;;;;;;;;;11.80;99.90;;;;;;5093982;28;19908;-73
2021/06/14 05:10:07;;;;;;;;;;;11.90;99.90;;;;;;5094477;28;20369;-73
2021/06/14 05:12:32;;;;;;;;;;;12.00;99.90;;;;;;5094431;28;19908;-73
2021/06/14 05:14:58;;;;;;;;;;;12.00;99.90;;;;;;5094466;28;19923;-72
2021/06/14 05:17:23;;;;;;;;;;;12.20;99.90;;;;;;5093501;28;19930;-72
2021/06/14 05:19:49;;;;;;;;;;;12.30;99.90;;;;;;5094001;28;20010;-72
2021/06/14 05:22:14;;;;;;;;;;;12.40;99.90;;;;;;5094158;28;19912;-72
2021/06/14 05:24:40;;;;;;;;;;;12.50;99.90;;;;;;5089244;28;19962;-72
2021/06/14 05:27:06;;;;;;;;;;;12.70;99.90;;;;;;5113674;28;19908;-72
2021/06/14 05:29:31;;;;;;;;;;;12.80;99.90;;;;;;5114442;28;20368;-73
2021/06/14 05:31:57;;;;;;;;;;;13.10;99.90;;;;;;5114351;28;19960;-72
2021/06/14 05:34:23;;;;;;;;;;;13.40;99.90;;;;;;5114266;28;19945;-72
2021/06/14 05:36:49;;;;;;;;;;;13.70;99.90;;;;;;5114078;28;19961;-72
2021/06/14 05:39:14;;;;;;;;;;;14.10;99.90;;;;;;5114699;28;19985;-73
2021/06/14 05:41:40;;;;;;;;;;;14.30;99.90;;;;;;5114807;28;19916;-73
2021/06/14 05:44:05;;;;;;;;;;;14.80;99.90;;;;;;5114668;28;19937;-73
2021/06/14 05:46:31;;;;;;;;;;;15.20;99.90;;;;;;5113598;28;20356;-73
2021/06/14 05:48:56;;;;;;;;;;;15.60;99.90;;;;;;5114301;28;19908;-73
2021/06/14 05:51:22;;;;;;;;;;;16.00;99.90;;;;;;5114507;28;20361;-73
2021/06/14 05:53:50;;;;;;;;;;;16.40;99.90;;;;;;5092270;28;19912;-73
2021/06/14 05:56:16;;;;;;;;;;;16.80;99.90;;;;;;5109999;28;20378;-73
2021/06/14 05:58:41;;;;;;;;;;;17.20;99.90;;;;;;5114294;28;19952;-73
2021/06/14 06:01:07;;;;;;;;;;;17.50;99.90;;;;;;5114391;28;19954;-73
2021/06/14 06:03:32;;;;;;;;;;;17.90;99.90;;;;;;5113975;28;20365;-73
2021/06/14 06:05:58;;;;;;;;;;;18.20;99.90;;;;;;5113443;28;19912;-73
2021/06/14 06:08:23;;;;;;;;;;;18.40;99.90;;;;;;5114077;28;19939;-73
2021/06/14 06:10:49;;;;;;;;;;;18.70;99.90;;;;;;5114536;28;19918;-73
2021/06/14 06:13:14;;;;;;;;;;;19.10;99.90;;;;;;5114526;28;19935;-73
2021/06/14 06:15:40;;;;;;;;;;;19.40;99.90;;;;;;5113222;28;19914;-73
2021/06/14 06:18:05;;;;;;;;;;;19.80;99.90;;;;;;5113835;28;19912;-73
2021/06/14 06:20:31;;;;;;;;;;;20.00;99.90;;;;;;5113992;28;19914;-73
2021/06/14 06:22:57;;;;;;;;;;;20.30;99.90;;;;;;5102182;28;19916;-73
2021/06/14 06:25:23;;;;;;;;;;;20.70;98.90;;;;;;5100183;28;19908;-72
2021/06/14 06:27:50;;;;;;;;;;;20.90;98.70;;;;;;5111781;28;19907;-73
2021/06/14 06:30:18;;;;;;;;;;;21.10;98.60;;;;;;5113732;28;20360;-73
2021/06/14 06:32:43;;;;;;;;;;;21.40;97.90;;;;;;5113630;28;19915;-73
2021/06/14 06:35:09;;;;;;;;;;;21.80;96.50;;;;;;5113529;28;19907;-73
2021/06/14 06:37:35;;;;;;;;;;;22.40;96.10;;;;;;5112851;28;19956;-72
2021/06/14 06:40:00;;;;;;;;;;;22.80;95.20;;;;;;5113526;28;19919;-73
2021/06/14 06:42:26;;;;;;;;;;;23.10;94.50;;;;;;5113368;28;19911;-73
2021/06/14 06:44:51;;;;;;;;;;;23.50;92.70;;;;;;5113227;28;20061;-73
2021/06/14 06:47:17;;;;;;;;;;;23.50;93.30;;;;;;5112709;28;19908;-73
2021/06/14 06:49:42;;;;;;;;;;;23.90;91.50;;;;;;5113183;28;20417;-73
2021/06/14 06:52:10;;;;;;;;;;;24.10;91.70;;;;;;5113472;28;19908;-73
2021/06/14 06:54:35;;;;;;;;;;;23.70;90.30;;;;;;5088002;28;19966;-73
2021/06/14 06:57:01;;;;;;;;;;;23.50;91.70;;;;;;5112259;28;20341;-73
2021/06/14 06:59:26;;;;;;;;;;;23.90;91.10;;;;;;5113058;28;19908;-73
2021/06/14 07:01:52;;;;;;;;;;;23.80;90.00;;;;;;5113239;28;19912;-73
2021/06/14 07:04:17;;;;;;;;;;;24.00;90.70;;;;;;5112783;28;19912;-73
2021/06/14 07:06:43;;;;;;;;;;;24.10;90.10;;;;;;5112336;28;19934;-73
2021/06/14 07:09:08;;;;;;;;;;;24.50;90.00;;;;;;5113027;28;19908;-74
2021/06/14 07:11:34;;;;;;;;;;;24.70;88.10;;;;;;5112947;28;20365;-74
2021/06/14 07:14:00;;;;;;;;;;;25.10;85.60;;;;;;5112803;28;20299;-73
2021/06/14 07:16:26;;;;;;;;;;;25.10;86.80;;;;;;5112084;28;19912;-73
2021/06/14 07:18:52;;;;;;;;;;;25.40;84.70;;;;;;5112627;28;20010;-73
2021/06/14 07:21:18;;;;;;;;;;;25.50;86.60;;;;;;5112733;28;19908;-73
2021/06/14 07:23:43;;;;;;;;;;;25.80;82.90;;;;;;5104270;28;19912;-73
2021/06/14 07:26:09;;;;;;;;;;;26.00;88.10;;;;;;5111785;28;19908;-73
2021/06/14 07:28:35;;;;;;;;;;;26.30;83.30;;;;;;5112529;28;19908;-74
2021/06/14 07:31:01;;;;;;;;;;;26.70;79.30;;;;;;5112730;28;20361;-73
2021/06/14 07:33:27;;;;;;;;;;;26.60;80.70;;;;;;5112362;28;19919;-73
2021/06/14 07:35:52;;;;;;;;;;;26.90;82.50;;;;;;5111826;28;20311;-73
2021/06/14 07:38:18;;;;;;;;;;;27.10;81.30;;;;;;5112586;28;19950;-73
2021/06/14 07:40:44;;;;;;;;;;;27.00;80.10;;;;;;5112397;28;19965;-73
2021/06/14 07:43:12;;;;;;;;;;;27.00;81.00;;;;;;5112336;28;19916;-73
2021/06/14 07:45:39;;;;;;;;;;;27.10;83.20;;;;;;5110202;28;21390;-73
2021/06/14 07:48:05;;;;;;;;;;;27.20;82.90;;;;;;5112145;28;20002;-73
2021/06/14 07:50:30;;;;;;;;;;;27.10;78.30;;;;;;5112142;28;19954;-73
2021/06/14 07:52:56;;;;;;;;;;;27.40;79.30;;;;;;5100971;28;20461;-73
2021/06/14 07:55:23;;;;;;;;;;;27.60;82.20;;;;;;5098017;28;19908;-73
2021/06/14 07:57:48;;;;;;;;;;;27.80;75.80;;;;;;5090926;28;19912;-73
2021/06/14 08:00:14;;;;;;;;;;;28.00;73.40;;;;;;5092047;28;20379;-73
2021/06/14 08:02:40;;;;;;;;;;;28.00;76.50;;;;;;5091844;28;19916;-74
2021/06/14 08:05:07;;;;;;;;;;;28.10;76.70;;;;;;5091727;28;20140;-73
2021/06/14 08:07:35;;;;;;;;;;;28.30;73.60;;;;;;5091047;28;20053;-73
2021/06/14 08:10:03;;;;;;;;;;;27.70;72.70;;;;;;5091913;28;19908;-73
2021/06/14 08:12:30;;;;;;;;;;;27.60;72.50;;;;;;5091812;28;19912;-73
2021/06/14 08:14:56;;;;;;;;;;;27.70;75.20;;;;;;5091829;28;20274;-73
2021/06/14 08:17:21;;;;;;;;;;;27.70;72.50;;;;;;5094875;28;19908;-74
2021/06/14 08:20:38;;;;;;;;;;;27.80;75.80;;;;;;5094255;28;19908;-74
2021/06/14 08:25:11;;;;;;;;;;;28.10;70.60;;;;;;5107310;28;19908;-73
2021/06/14 08:27:38;;;;;;;;;;;28.30;75.60;;;;;;5095282;28;19914;-74
2021/06/14 08:30:06;;;;;;;;;;;28.50;71.70;;;;;;5095824;28;19915;-74
2021/06/14 08:32:32;;;;;;;;;;;28.20;67.70;;;;;;5095678;28;19909;-73
2021/06/14 08:34:57;;;;;;;;;;;28.30;72.70;;;;;;5095290;28;19908;-73
2021/06/14 08:37:23;;;;;;;;;;;28.40;71.80;;;;;;5094742;28;19908;-74
2021/06/14 08:39:49;;;;;;;;;;;28.40;68.90;;;;;;5095347;28;19927;-74
2021/06/14 08:42:14;;;;;;;;;;;28.30;66.30;;;;;;5095052;28;20002;-73
2021/06/14 08:44:41;;;;;;;;;;;28.30;68.30;;;;;;5095433;28;19994;-73
2021/06/14 08:47:07;;;;;;;;;;;28.30;67.90;;;;;;5094704;28;19951;-74
2021/06/14 08:49:33;;;;;;;;;;;28.40;70.90;;;;;;5095168;28;19909;-74
2021/06/14 08:51:59;;;;;;;;;;;28.10;67.20;;;;;;5095679;28;20104;-74
2021/06/14 08:54:25;;;;;;;;;;;28.00;72.70;;;;;;5088032;28;19915;-74
2021/06/14 08:56:50;;;;;;;;;;;28.30;72.60;;;;;;5114772;28;20369;-74
2021/06/14 08:59:16;;;;;;;;;;;28.70;72.00;;;;;;5115517;28;19907;-74
2021/06/14 09:01:41;;;;;;;;;;;29.00;68.40;;;;;;5115502;28;19951;-74
2021/06/14 09:04:07;;;;;;;;;;;29.10;70.50;;;;;;5115164;28;20384;-74
2021/06/14 09:06:32;;;;;;;;;;;29.10;67.10;;;;;;5114470;28;20039;-74
2021/06/14 09:09:03;;;;;;;;;;;29.10;68.40;;;;;;5115156;28;19915;-73
2021/06/14 09:11:30;;;;;;;;;;;29.10;68.40;;;;;;5115323;28;19914;-74
2021/06/14 09:13:55;;;;;;;;;;;28.80;65.50;;;;;;5115244;28;20534;-74
2021/06/14 09:16:21;;;;;;;;;;;28.80;71.80;;;;;;5114391;28;19908;-74
2021/06/14 09:18:46;;;;;;;;;;;28.80;68.30;;;;;;5114854;28;20361;-74
2021/06/14 09:21:16;;;;;;;;;;;28.70;65.50;;;;;;5114992;28;19915;-74
2021/06/14 09:23:52;;;;;;;;;;;28.50;71.10;;;;;;5098221;28;19918;-74
2021/06/14 09:26:25;;;;;;;;;;;28.70;66.70;;;;;;5105207;28;20344;-74
2021/06/14 09:28:52;;;;;;;;;;;28.90;69.80;;;;;;5093373;28;20439;-74
2021/06/14 09:31:18;;;;;;;;;;;29.20;68.10;;;;;;5094498;28;19996;-74
2021/06/14 09:33:45;;;;;;;;;;;29.50;70.00;;;;;;5094250;28;19939;-74
2021/06/14 09:36:10;;;;;;;;;;;29.70;72.40;;;;;;5093624;28;19968;-74
2021/06/14 09:38:35;;;;;;;;;;;30.00;66.10;;;;;;5094421;28;20232;-74
2021/06/14 09:41:07;;;;;;;;;;;30.10;68.00;;;;;;5094315;28;20365;-74
2021/06/14 09:43:36;;;;;;;;;;;30.20;68.40;;;;;;5094350;28;19913;-74
2021/06/14 09:46:04;;;;;;;;;;;30.30;63.60;;;;;;5093267;28;19963;-74
2021/06/14 09:48:30;;;;;;;;;;;30.40;64.60;;;;;;5094246;28;19908;-73
2021/06/14 09:50:57;;;;;;;;;;;30.10;64.90;;;;;;5094044;28;20396;-74
2021/06/14 09:53:27;;;;;;;;;;;30.10;66.30;;;;;;5085738;28;20266;-74
2021/06/14 09:55:52;;;;;;;;;;;30.40;68.10;;;;;;5106828;28;20296;-74
2021/06/14 09:58:20;;;;;;;;;;;30.80;63.90;;;;;;5114280;28;19912;-74
2021/06/14 10:00:56;;;;;;;;;;;31.10;62.60;;;;;;5114237;28;19912;-74
2021/06/14 10:03:24;;;;;;;;;;;31.10;63.60;;;;;;5114415;28;19912;-74
2021/06/14 10:05:51;;;;;;;;;;;30.90;62.30;;;;;;5113326;28;19966;-74
2021/06/14 10:08:43;;;;;;;;;;;30.60;59.40;;;;;;5114197;28;19908;-74
2021/06/14 10:11:09;;;;;;;;;;;30.60;62.70;;;;;;5110761;28;19915;-74
2021/06/14 10:13:37;;;;;;;;;;;30.50;62.10;;;;;;5114125;28;19915;-74
2021/06/14 10:16:04;;;;;;;;;;;30.30;61.30;;;;;;5113185;28;19911;-74
2021/06/14 10:18:30;;;;;;;;;;;30.00;63.20;;;;;;5113886;28;19908;-74
2021/06/14 10:20:56;;;;;;;;;;;30.00;63.40;;;;;;5114143;28;19907;-74
2021/06/14 10:23:21;;;;;;;;;;;30.20;61.20;;;;;;5096003;28;19917;-74
2021/06/14 10:25:47;;;;;;;;;;;30.60;66.10;;;;;;5105408;28;19919;-74
2021/06/14 10:28:12;;;;;;;;;;;30.90;60.70;;;;;;5113538;28;19961;-74
2021/06/14 10:30:38;;;;;;;;;;;30.80;62.20;;;;;;5113144;28;19907;-74
2021/06/14 10:33:04;;;;;;;;;;;30.60;57.50;;;;;;5113516;28;19911;-74
2021/06/14 10:35:30;;;;;;;;;;;30.60;59.40;;;;;;5112756;28;19908;-73
2021/06/14 10:37:56;;;;;;;;;;;30.80;64.30;;;;;;5112248;28;20409;-73
2021/06/14 10:40:25;;;;;;;;;;;31.10;62.80;;;;;;5112316;28;20428;-73
2021/06/14 10:42:51;;;;;;;;;;;31.20;60.10;;;;;;5092653;28;19949;-74
2021/06/14 10:45:18;;;;;;;;;;;31.10;59.70;;;;;;5086636;28;19908;-74
2021/06/14 10:47:46;;;;;;;;;;;31.10;58.50;;;;;;5090561;28;19908;-73
2021/06/14 10:50:13;;;;;;;;;;;31.20;57.80;;;;;;5078214;28;20378;-74
2021/06/14 10:52:39;;;;;;;;;;;31.10;59.90;;;;;;5071665;28;19908;-73
2021/06/14 10:55:09;;;;;;;;;;;31.10;59.50;;;;;;5086994;28;20413;-74
2021/06/14 10:57:35;;;;;;;;;;;31.40;59.00;;;;;;5091280;28;19908;-74
2021/06/14 11:00:00;;;;;;;;;;;31.60;57.80;;;;;;5092139;28;19916;-74
2021/06/14 11:02:26;;;;;;;;;;;31.80;62.90;;;;;;5092145;28;19908;-73
2021/06/14 11:05:02;;;;;;;;;;;32.10;63.60;;;;;;5091716;28;19908;-74
2021/06/14 11:07:30;;;;;;;;;;;32.30;60.70;;;;;;5082391;28;19934;-74
2021/06/14 11:09:56;;;;;;;;;;;32.20;56.90;;;;;;5091759;28;20320;-74
2021/06/14 11:12:25;;;;;;;;;;;32.00;55.80;;;;;;5091970;28;19916;-73
2021/06/14 11:14:51;;;;;;;;;;;31.90;57.80;;;;;;5082314;28;19914;-74
2021/06/14 11:17:34;;;;;;;;;;;32.00;58.90;;;;;;5108006;28;19930;-74
2021/06/14 11:19:59;;;;;;;;;;;32.20;57.20;;;;;;5111709;28;19964;-74
2021/06/14 11:22:38;;;;;;;;;;;32.50;55.40;;;;;;5105300;28;19911;-74
2021/06/14 11:25:17;;;;;;;;;;;32.70;55.90;;;;;;5077203;28;19912;-74
2021/06/14 11:27:43;;;;;;;;;;;32.60;54.40;;;;;;5061351;28;20061;-74
2021/06/14 11:30:13;;;;;;;;;;;32.50;59.50;;;;;;5075402;28;19999;-74
2021/06/14 11:32:39;;;;;;;;;;;32.40;54.90;;;;;;5086786;28;20365;-74
2021/06/14 11:35:05;;;;;;;;;;;32.00;57.80;;;;;;5077786;28;19919;-73
2021/06/14 11:38:00;;;;;;;;;;;32.00;55.20;;;;;;5087557;28;19927;-75
2021/06/14 11:40:28;;;;;;;;;;;32.00;53.30;;;;;;5057912;28;20404;-70
2021/06/14 11:42:57;;;;;;;;;;;31.60;53.60;;;;;;5071129;28;20356;-79
2021/06/14 11:45:29;;;;;;;;;;;31.60;55.10;;;;;;5071472;28;19909;-72
2021/06/14 11:47:56;;;;;;;;;;;31.50;53.60;;;;;;5070712;28;19915;-72
2021/06/14 11:50:22;;;;;;;;;;;31.30;53.10;;;;;;5070164;28;19927;-71
2021/06/14 11:53:02;;;;;;;;;;;31.40;58.50;;;;;;5071174;28;19909;-72
2021/06/14 11:55:30;;;;;;;;;;;31.60;55.80;;;;;;5088600;28;19938;-74
2021/06/14 11:57:56;;;;;;;;;;;31.90;57.50;;;;;;5082885;28;19917;-73
2021/06/14 12:00:25;;;;;;;;;;;31.90;55.20;;;;;;5073040;28;19962;-73
2021/06/14 12:02:50;;;;;;;;;;;31.60;55.00;;;;;;5090671;28;19912;-72
2021/06/14 12:05:16;;;;;;;;;;;31.60;55.00;;;;;;5090613;28;19915;-72
2021/06/14 12:07:41;;;;;;;;;;;31.50;55.90;;;;;;5083167;28;20371;-72
2021/06/14 12:10:12;;;;;;;;;;;31.70;57.90;;;;;;5090866;28;19908;-72
2021/06/14 12:12:38;;;;;;;;;;;31.90;60.80;;;;;;5090794;28;19966;-71
2021/06/14 12:15:04;;;;;;;;;;;32.00;58.80;;;;;;5091593;28;20357;-72
2021/06/14 12:17:32;;;;;;;;;;;32.20;59.70;;;;;;5093519;28;19908;-72
2021/06/14 12:19:58;;;;;;;;;;;32.40;55.20;;;;;;5090444;28;20327;-72
2021/06/14 12:22:24;;;;;;;;;;;32.50;56.20;;;;;;5089526;28;19908;-72
2021/06/14 12:24:50;;;;;;;;;;;32.80;56.00;;;;;;5083747;28;19908;-72
2021/06/14 12:27:17;;;;;;;;;;;32.80;57.40;;;;;;5089983;28;19961;-74
2021/06/14 12:29:43;;;;;;;;;;;32.80;54.10;;;;;;5089451;28;19908;-72
2021/06/14 12:32:11;;;;;;;;;;;32.80;54.70;;;;;;5090697;28;19912;-72
2021/06/14 12:34:38;;;;;;;;;;;33.00;53.80;;;;;;5090375;28;19909;-72
2021/06/14 12:37:07;;;;;;;;;;;33.30;56.10;;;;;;5089861;28;19951;-72
2021/06/14 12:39:33;;;;;;;;;;;33.40;51.80;;;;;;5090749;28;19908;-73
2021/06/14 12:41:58;;;;;;;;;;;33.20;52.80;;;;;;5090851;28;20364;-73
2021/06/14 12:44:24;;;;;;;;;;;33.00;56.00;;;;;;5090668;28;20437;-72
2021/06/14 12:46:49;;;;;;;;;;;33.00;51.30;;;;;;5090137;28;19908;-72
2021/06/14 12:49:22;;;;;;;;;;;33.00;54.60;;;;;;5090107;28;19912;-72
2021/06/14 12:51:48;;;;;;;;;;;33.10;55.00;;;;;;5090968;28;19908;-73
2021/06/14 12:54:14;;;;;;;;;;;32.80;53.30;;;;;;5082078;28;19930;-72
2021/06/14 12:56:39;;;;;;;;;;;32.50;53.50;;;;;;5089627;28;20358;-72
2021/06/14 12:59:05;;;;;;;;;;;32.50;56.10;;;;;;5090554;28;19916;-72
2021/06/14 13:01:35;;;;;;;;;;;32.30;54.10;;;;;;5091614;28;19908;-72
2021/06/14 13:04:01;;;;;;;;;;;32.10;53.50;;;;;;5093021;28;19915;-72
2021/06/14 13:06:30;;;;;;;;;;;32.00;52.90;;;;;;5091769;28;19908;-72
2021/06/14 13:08:58;;;;;;;;;;;31.70;54.20;;;;;;5093951;28;19994;-72
2021/06/14 13:11:24;;;;;;;;;;;31.60;55.70;;;;;;5093926;28;20007;-72
2021/06/14 13:13:50;;;;;;;;;;;31.60;54.70;;;;;;5089565;28;19964;-72
2021/06/14 13:16:23;;;;;;;;;;;31.60;58.10;;;;;;5093169;28;19912;-72
2021/06/14 13:18:55;;;;;;;;;;;31.80;54.30;;;;;;5094404;28;19912;-72
2021/06/14 13:21:24;;;;;;;;;;;31.60;51.90;;;;;;5094046;28;20274;-72
2021/06/14 13:23:57;;;;;;;;;;;31.60;56.20;;;;;;5085806;28;19912;-72
2021/06/14 13:26:25;;;;;;;;;;;31.90;54.10;;;;;;5093483;28;19951;-72
2021/06/14 13:28:51;;;;;;;;;;;31.90;54.30;;;;;;5093818;28;19908;-72
2021/06/14 13:31:21;;;;;;;;;;;32.00;58.50;;;;;;5074386;28;19933;-72
2021/06/14 13:34:04;;;;;;;;;;;32.10;53.90;;;;;;5073446;28;19908;-72
2021/06/14 13:36:35;;;;;;;;;;;32.20;56.50;;;;;;5073026;28;20064;-72
2021/06/14 13:39:00;;;;;;;;;;;32.50;53.70;;;;;;5073137;28;19909;-72
2021/06/14 13:41:28;;;;;;;;;;;32.70;53.30;;;;;;5073419;28;19924;-71
2021/06/14 13:44:07;;;;;;;;;;;32.60;52.60;;;;;;5073577;28;19912;-73
2021/06/14 13:46:43;;;;;;;;;;;32.40;54.90;;;;;;5071459;28;19912;-72
2021/06/14 13:49:09;;;;;;;;;;;32.50;50.40;;;;;;5077347;28;19908;-76
2021/06/14 13:51:35;;;;;;;;;;;32.40;51.90;;;;;;5093376;28;20030;-72
2021/06/14 13:54:00;;;;;;;;;;;32.30;53.90;;;;;;5091972;28;20454;-73
2021/06/14 13:56:30;;;;;;;;;;;32.00;53.90;;;;;;5113274;28;19961;-73
2021/06/14 13:58:55;;;;;;;;;;;31.90;57.40;;;;;;5114502;28;19935;-72
2021/06/14 14:01:26;;;;;;;;;;;31.90;52.80;;;;;;5114026;28;20345;-73
2021/06/14 14:04:04;;;;;;;;;;;32.00;54.50;;;;;;5113763;28;19912;-72
2021/06/14 14:06:29;;;;;;;;;;;32.20;57.10;;;;;;5112245;28;19998;-73
2021/06/14 14:08:56;;;;;;;;;;;32.40;55.30;;;;;;5113324;28;19965;-72
2021/06/14 14:11:22;;;;;;;;;;;32.40;57.00;;;;;;5113034;28;19915;-73
2021/06/14 14:13:58;;;;;;;;;;;32.50;55.20;;;;;;5112931;28;19974;-73
2021/06/14 14:16:23;;;;;;;;;;;32.60;58.20;;;;;;5112465;28;20391;-72
2021/06/14 14:18:49;;;;;;;;;;;32.60;51.10;;;;;;5113283;28;20002;-73
2021/06/14 14:21:14;;;;;;;;;;;32.50;55.90;;;;;;5113182;28;20104;-73